createdAt,value
2023-04-30T00:00:12.748Z,5.88
2023-04-30T00:02:40.349Z,6.60
2023-04-30T00:05:08.498Z,6.78
2023-04-30T00:07:36.003Z,6.90
2023-04-30T00:10:05.349Z,6.70
2023-04-30T00:12:32.862Z,8.13
2023-04-30T00:15:01.390Z,7.18
2023-04-30T00:17:28.941Z,7.40
2023-04-30T00:19:56.679Z,6.65
2023-04-30T00:22:24.447Z,9.35
2023-04-30T00:24:52.005Z,8.18
2023-04-30T00:27:19.486Z,7.50
2023-04-30T00:29:47.026Z,8.10
2023-04-30T00:32:14.627Z,10.70
2023-04-30T00:34:42.647Z,9.18
2023-04-30T00:37:10.183Z,8.85
2023-04-30T00:39:37.784Z,9.10
2023-04-30T00:42:05.629Z,7.32
2023-04-30T00:44:33.477Z,9.32
2023-04-30T00:47:00.959Z,7.28
2023-04-30T00:49:28.604Z,8.77
2023-04-30T00:51:56.565Z,9.30
2023-04-30T00:54:25.273Z,10.70
2023-04-30T00:56:52.853Z,9.43
2023-04-30T00:59:20.932Z,9.15
2023-04-30T01:01:48.575Z,8.13
2023-04-30T01:04:16.473Z,8.63
2023-04-30T01:06:43.989Z,9.82
2023-04-30T01:09:11.647Z,11.50
2023-04-30T01:12:13.410Z,9.60
2023-04-30T01:15:32.543Z,8.70
2023-04-30T01:18:10.170Z,9.45
2023-04-30T01:20:47.997Z,8.50
2023-04-30T01:23:46.696Z,10.30
2023-04-30T01:26:35.588Z,7.20
2023-04-30T01:29:04.273Z,9.88
2023-04-30T01:31:31.864Z,7.88
2023-04-30T01:33:59.486Z,8.98
2023-04-30T01:37:05.860Z,8.23
2023-04-30T01:40:14.553Z,8.60
2023-04-30T01:42:49.993Z,8.98
2023-04-30T01:45:47.046Z,8.73
2023-04-30T01:49:00.570Z,7.40
2023-04-30T01:51:55.921Z,8.65
2023-04-30T01:54:38.547Z,8.77
2023-04-30T01:57:24.163Z,9.95
2023-04-30T01:59:52.802Z,9.90
2023-04-30T02:02:20.758Z,9.82
2023-04-30T02:04:48.342Z,10.25
2023-04-30T02:07:39.326Z,10.90
2023-04-30T02:10:08.714Z,7.68
2023-04-30T02:12:36.546Z,10.65
2023-04-30T02:15:06.067Z,9.68
2023-04-30T02:17:34.255Z,12.63
2023-04-30T02:20:02.095Z,10.00
2023-04-30T02:22:30.320Z,8.57
2023-04-30T02:24:57.861Z,10.93
2023-04-30T02:27:26.889Z,10.90
2023-04-30T02:29:54.700Z,12.63
2023-04-30T02:32:22.633Z,10.98
2023-04-30T02:34:50.435Z,9.35
2023-04-30T02:37:17.988Z,12.10
2023-04-30T02:39:45.515Z,11.10
2023-04-30T02:42:13.056Z,9.68
2023-04-30T02:44:41.093Z,10.93
2023-04-30T02:47:08.699Z,10.17
2023-04-30T02:49:36.430Z,9.67
2023-04-30T02:52:04.063Z,11.52
2023-04-30T02:54:31.663Z,11.90
2023-04-30T02:56:59.475Z,11.37
2023-04-30T02:59:27.223Z,10.90
2023-04-30T03:01:54.772Z,11.63
2023-04-30T03:04:22.366Z,13.53
2023-04-30T03:06:49.869Z,10.75
2023-04-30T03:09:17.902Z,11.52
2023-04-30T03:11:45.458Z,12.47
2023-04-30T03:14:13.019Z,10.80
2023-04-30T03:16:40.689Z,10.27
2023-04-30T03:19:08.351Z,11.47
2023-04-30T03:21:35.875Z,8.95
2023-04-30T03:24:03.455Z,11.73
2023-04-30T03:26:30.937Z,13.57
2023-04-30T03:28:58.552Z,11.50
2023-04-30T03:31:26.224Z,11.63
2023-04-30T03:33:53.818Z,11.90
2023-04-30T03:36:22.235Z,10.07
2023-04-30T03:38:49.760Z,11.83
2023-04-30T03:41:17.281Z,11.83
2023-04-30T03:43:44.853Z,12.47
2023-04-30T03:46:12.587Z,11.70
2023-04-30T03:48:40.239Z,11.57
2023-04-30T03:51:07.729Z,10.43
2023-04-30T03:53:35.340Z,10.63
2023-04-30T03:56:04.590Z,11.55
2023-04-30T03:58:32.626Z,12.23
2023-04-30T04:01:00.165Z,10.90
2023-04-30T04:03:27.834Z,13.50
2023-04-30T04:05:55.386Z,10.07
2023-04-30T04:08:23.254Z,12.43
2023-04-30T04:10:50.963Z,10.07
2023-04-30T04:13:18.647Z,10.73
2023-04-30T04:15:46.592Z,11.90
2023-04-30T04:18:14.123Z,12.73
2023-04-30T04:20:41.855Z,12.00
2023-04-30T04:23:09.374Z,12.52
2023-04-30T04:25:36.854Z,12.33
2023-04-30T04:28:04.658Z,12.87
2023-04-30T04:30:32.295Z,10.02
2023-04-30T04:33:00.447Z,10.38
2023-04-30T04:35:29.845Z,10.43
2023-04-30T04:37:57.814Z,11.60
2023-04-30T04:40:25.324Z,10.88
2023-04-30T04:42:53.049Z,13.00
2023-04-30T04:45:20.651Z,12.77
2023-04-30T04:47:49.325Z,12.73
2023-04-30T04:50:17.369Z,14.57
2023-04-30T04:52:45.133Z,10.10
2023-04-30T04:55:13.914Z,10.90
2023-04-30T04:57:42.481Z,11.80
2023-04-30T05:00:11.743Z,11.30
2023-04-30T05:02:39.307Z,11.45
2023-04-30T05:05:07.847Z,13.90
2023-04-30T05:07:35.409Z,13.50
2023-04-30T05:10:03.560Z,13.43
2023-04-30T05:12:31.338Z,12.27
2023-04-30T05:14:58.870Z,12.13
2023-04-30T05:17:26.398Z,14.87
2023-04-30T05:19:54.177Z,20.00
2023-04-30T05:22:21.859Z,15.90
2023-04-30T05:24:49.416Z,14.77
2023-04-30T05:27:17.048Z,13.82
2023-04-30T05:29:44.537Z,10.57
2023-04-30T05:32:12.112Z,11.38
2023-04-30T05:34:39.634Z,11.38
2023-04-30T05:37:07.113Z,10.63
2023-04-30T05:39:34.615Z,10.63
2023-04-30T05:42:03.081Z,13.65
2023-04-30T05:44:30.559Z,13.73
2023-04-30T05:46:58.074Z,9.35
2023-04-30T05:49:25.596Z,13.27
2023-04-30T05:51:53.105Z,10.43
2023-04-30T05:54:20.576Z,11.13
2023-04-30T05:56:48.424Z,12.93
2023-04-30T05:59:15.912Z,14.38
2023-04-30T06:01:43.448Z,11.60
2023-04-30T06:04:11.650Z,10.68
2023-04-30T06:06:39.284Z,10.05
2023-04-30T06:09:06.839Z,10.23
2023-04-30T06:11:34.996Z,11.38
2023-04-30T06:14:03.757Z,11.75
2023-04-30T06:16:31.596Z,10.15
2023-04-30T06:18:59.158Z,11.38
2023-04-30T06:21:26.722Z,10.82
2023-04-30T06:23:54.284Z,13.13
2023-04-30T06:26:21.813Z,10.60
2023-04-30T06:28:49.358Z,11.60
2023-04-30T06:31:16.909Z,11.13
2023-04-30T06:33:44.502Z,10.82
2023-04-30T06:36:12.207Z,12.95
2023-04-30T06:38:41.305Z,12.90
2023-04-30T06:41:09.069Z,14.43
2023-04-30T06:43:36.867Z,10.85
2023-04-30T06:46:05.074Z,13.30
2023-04-30T06:48:32.903Z,10.98
2023-04-30T06:51:00.490Z,11.48
2023-04-30T06:53:27.989Z,12.38
2023-04-30T06:55:55.832Z,11.77
2023-04-30T06:58:24.133Z,10.65
2023-04-30T07:00:52.383Z,11.70
2023-04-30T07:03:20.020Z,11.45
2023-04-30T07:05:47.883Z,14.68
2023-04-30T07:08:15.381Z,13.38
2023-04-30T07:10:42.909Z,12.57
2023-04-30T07:13:10.441Z,12.70
2023-04-30T07:15:38.422Z,13.35
2023-04-30T07:18:06.017Z,13.35
2023-04-30T07:20:33.671Z,12.93
2023-04-30T07:23:01.185Z,11.90
2023-04-30T07:25:28.669Z,15.23
2023-04-30T07:27:56.355Z,12.43
2023-04-30T07:30:25.208Z,12.20
2023-04-30T07:32:53.209Z,12.05
2023-04-30T07:35:20.756Z,9.68
2023-04-30T07:37:48.248Z,12.85
2023-04-30T07:40:25.013Z,10.88
2023-04-30T07:42:52.821Z,11.43
2023-04-30T07:45:20.450Z,10.57
2023-04-30T07:47:48.724Z,11.70
2023-04-30T07:50:17.148Z,10.32
2023-04-30T07:52:44.930Z,10.48
2023-04-30T07:55:12.986Z,9.77
2023-04-30T07:57:41.022Z,11.82
2023-04-30T08:00:09.467Z,9.20
2023-04-30T08:02:46.105Z,11.02
2023-04-30T08:05:13.811Z,10.65
2023-04-30T08:07:41.750Z,10.93
2023-04-30T08:10:09.566Z,10.63
2023-04-30T08:12:37.374Z,10.07
2023-04-30T08:15:07.362Z,8.18
2023-04-30T08:17:35.605Z,9.95
2023-04-30T08:20:07.309Z,7.70
2023-04-30T08:22:34.893Z,8.50
2023-04-30T08:25:02.684Z,7.30
2023-04-30T08:27:32.183Z,8.73
2023-04-30T08:29:59.710Z,8.35
2023-04-30T08:32:28.278Z,9.52
2023-04-30T08:34:56.023Z,8.15
2023-04-30T08:37:23.756Z,8.10
2023-04-30T08:39:51.273Z,6.93
2023-04-30T08:42:21.464Z,7.35
2023-04-30T08:44:49.003Z,6.68
2023-04-30T08:47:18.100Z,8.98
2023-04-30T08:49:46.222Z,7.45
2023-04-30T08:52:14.586Z,5.28
2023-04-30T08:54:44.193Z,6.35
2023-04-30T08:57:11.750Z,5.72
2023-04-30T08:59:39.361Z,7.43
2023-04-30T09:02:07.526Z,6.18
2023-04-30T09:04:35.205Z,4.82
2023-04-30T09:07:05.592Z,4.88
2023-04-30T09:09:40.813Z,6.93
2023-04-30T09:12:18.864Z,4.85
2023-04-30T09:15:05.136Z,6.13
2023-04-30T09:17:35.258Z,5.63
2023-04-30T09:20:13.632Z,5.53
2023-04-30T09:22:42.432Z,4.57
2023-04-30T09:25:11.402Z,5.07
2023-04-30T09:27:38.936Z,4.95
2023-04-30T09:30:08.730Z,5.88
2023-04-30T09:32:36.453Z,6.63
2023-04-30T09:35:04.764Z,6.50
2023-04-30T09:37:37.442Z,7.22
2023-04-30T09:40:05.685Z,4.30
2023-04-30T09:42:33.303Z,3.67
2023-04-30T09:45:00.858Z,3.65
2023-04-30T09:47:31.843Z,4.65
2023-04-30T09:50:00.428Z,4.45
2023-04-30T09:52:28.092Z,5.20
2023-04-30T09:54:55.558Z,5.63
2023-04-30T09:57:24.479Z,4.55
2023-04-30T09:59:54.028Z,6.78
2023-04-30T10:02:23.909Z,4.07
2023-04-30T10:04:57.989Z,4.28
2023-04-30T10:07:39.115Z,4.50
2023-04-30T10:10:10.962Z,6.25
2023-04-30T10:12:47.868Z,4.03
2023-04-30T10:15:25.745Z,4.90
2023-04-30T10:18:02.599Z,4.03
2023-04-30T10:20:34.989Z,4.00
2023-04-30T10:23:02.738Z,7.63
2023-04-30T10:25:31.487Z,6.18
2023-04-30T10:27:59.319Z,5.43
2023-04-30T10:30:27.410Z,3.47
2023-04-30T10:33:31.357Z,3.80
2023-04-30T10:36:06.605Z,9.80
2023-04-30T10:38:36.079Z,5.60
2023-04-30T10:41:07.735Z,5.55
2023-04-30T10:43:36.854Z,4.88
2023-04-30T10:46:04.702Z,5.90
2023-04-30T10:48:35.817Z,6.45
2023-04-30T10:51:04.248Z,7.63
2023-04-30T10:53:32.401Z,7.90
2023-04-30T10:56:08.230Z,10.90
2023-04-30T10:58:40.554Z,9.50
2023-04-30T11:01:17.269Z,5.78
2023-04-30T11:04:09.398Z,5.35
2023-04-30T11:07:02.278Z,4.53
2023-04-30T11:09:45.022Z,5.40
2023-04-30T11:12:28.470Z,3.92
2023-04-30T11:15:14.451Z,4.68
2023-04-30T11:17:50.489Z,8.30
2023-04-30T11:20:24.034Z,6.57
2023-04-30T11:25:57.674Z,5.90
2023-04-30T11:28:27.418Z,7.00
2023-04-30T11:31:01.443Z,4.72
2023-04-30T11:33:33.690Z,5.80
2023-04-30T11:36:02.228Z,7.20
2023-04-30T11:38:35.002Z,5.90
2023-04-30T11:41:04.639Z,12.30
2023-04-30T11:43:34.516Z,7.93
2023-04-30T11:46:09.318Z,8.57
2023-04-30T11:48:47.194Z,10.30
2023-04-30T11:51:24.051Z,6.47
2023-04-30T11:53:53.376Z,7.70
2023-04-30T11:56:23.986Z,7.20
2023-04-30T11:58:57.730Z,6.97
2023-04-30T12:01:28.496Z,5.65
2023-04-30T12:03:57.573Z,5.05
2023-04-30T12:06:28.019Z,6.10
2023-04-30T12:08:56.473Z,5.32
2023-04-30T12:11:34.366Z,5.20
2023-04-30T12:14:07.468Z,5.60
2023-04-30T12:16:51.279Z,4.60
2023-04-30T12:19:25.016Z,6.85
2023-04-30T12:21:55.068Z,5.77
2023-04-30T12:24:26.993Z,6.53
2023-04-30T12:26:54.661Z,8.88
2023-04-30T12:29:22.997Z,6.13
2023-04-30T12:31:53.167Z,6.45
2023-04-30T12:34:20.768Z,6.53
2023-04-30T12:36:48.392Z,6.20
2023-04-30T12:39:16.584Z,5.93
2023-04-30T12:41:49.610Z,6.03
2023-04-30T12:44:29.026Z,4.70
2023-04-30T12:47:00.529Z,5.40
2023-04-30T12:49:34.369Z,4.72
2023-04-30T12:52:08.528Z,5.15
2023-04-30T12:54:38.008Z,4.07
2023-04-30T12:57:10.046Z,4.30
2023-04-30T13:00:00.789Z,6.18
2023-04-30T13:02:31.998Z,3.75
2023-04-30T13:04:59.973Z,4.32
2023-04-30T13:07:36.122Z,5.50
2023-04-30T13:10:03.934Z,9.65
2023-04-30T13:12:31.476Z,8.57
2023-04-30T13:14:58.952Z,5.97
2023-04-30T13:17:26.697Z,7.00
2023-04-30T13:19:54.441Z,6.80
2023-04-30T13:22:23.754Z,5.72
2023-04-30T13:24:51.513Z,6.82
2023-04-30T13:27:19.031Z,7.07
2023-04-30T13:29:46.674Z,7.63
2023-04-30T13:32:14.248Z,4.80
2023-04-30T13:34:41.867Z,5.13
2023-04-30T13:37:09.575Z,5.60
2023-04-30T13:39:37.210Z,4.72
2023-04-30T13:42:05.396Z,6.40
2023-04-30T13:44:33.757Z,4.43
2023-04-30T13:47:01.573Z,4.80
2023-04-30T13:49:29.195Z,4.60
2023-04-30T13:51:57.257Z,5.82
2023-04-30T13:54:24.740Z,6.38
2023-04-30T13:56:52.317Z,5.63
2023-04-30T13:59:19.943Z,5.00
2023-04-30T14:01:47.560Z,6.95
2023-04-30T14:04:15.253Z,6.22
2023-04-30T14:06:43.565Z,5.78
2023-04-30T14:09:11.740Z,7.22
2023-04-30T14:11:39.785Z,6.97
2023-04-30T14:14:08.916Z,6.45
2023-04-30T14:16:36.829Z,3.65
2023-04-30T14:19:04.884Z,4.43
2023-04-30T14:21:33.191Z,4.72
2023-04-30T14:24:00.743Z,6.57
2023-04-30T14:26:28.570Z,5.20
2023-04-30T14:28:57.253Z,5.82
2023-04-30T14:31:24.958Z,5.20
2023-04-30T14:33:52.558Z,7.63
2023-04-30T14:36:20.165Z,5.32
2023-04-30T14:38:47.725Z,6.18
2023-04-30T14:41:15.379Z,13.48
2023-04-30T14:43:42.956Z,8.48
2023-04-30T14:46:11.610Z,18.95
2023-04-30T14:48:39.421Z,28.02
2023-04-30T14:51:07.622Z,24.90
2023-04-30T14:53:37.759Z,28.70
2023-04-30T14:56:07.168Z,13.80
2023-04-30T14:58:34.911Z,9.43
2023-04-30T15:01:02.537Z,7.07
2023-04-30T15:03:31.055Z,10.25
2023-04-30T15:06:00.120Z,8.25
2023-04-30T15:08:27.720Z,5.57
2023-04-30T15:10:55.951Z,3.83
2023-04-30T15:13:23.512Z,3.83
2023-04-30T15:15:51.168Z,5.30
2023-04-30T15:18:18.788Z,3.65
2023-04-30T15:20:47.085Z,3.55
2023-04-30T15:23:14.883Z,3.92
2023-04-30T15:25:44.050Z,5.28
2023-04-30T15:28:11.606Z,8.30
2023-04-30T15:30:39.232Z,6.40
2023-04-30T15:33:06.898Z,8.48
2023-04-30T15:35:34.777Z,9.27
2023-04-30T15:38:02.294Z,4.03
2023-04-30T15:40:29.772Z,3.65
2023-04-30T15:42:57.273Z,4.78
2023-04-30T15:45:25.287Z,4.18
2023-04-30T15:47:52.930Z,4.15
2023-04-30T15:50:21.257Z,5.47
2023-04-30T15:52:48.833Z,3.75
2023-04-30T15:55:16.525Z,5.95
2023-04-30T15:57:44.204Z,4.18
2023-04-30T16:00:14.515Z,4.43
2023-04-30T16:02:42.372Z,14.23
2023-04-30T16:05:10.251Z,5.88
2023-04-30T16:07:38.090Z,6.32
2023-04-30T16:10:06.916Z,4.32
2023-04-30T16:12:34.455Z,4.93
2023-04-30T16:15:02.002Z,4.40
2023-04-30T16:17:31.049Z,4.72
2023-04-30T16:20:00.231Z,7.28
2023-04-30T16:22:28.520Z,14.82
2023-04-30T16:24:56.320Z,20.02
2023-04-30T16:27:24.199Z,28.77
2023-04-30T16:29:51.790Z,29.73
2023-04-30T16:32:19.417Z,23.58
2023-04-30T16:34:47.117Z,23.08
2023-04-30T16:37:15.535Z,9.52
2023-04-30T16:39:43.071Z,8.00
2023-04-30T16:42:11.336Z,9.35
2023-04-30T16:44:39.011Z,4.82
2023-04-30T16:47:06.917Z,4.70
2023-04-30T16:49:34.730Z,5.13
2023-04-30T16:52:02.372Z,5.75
2023-04-30T16:54:29.958Z,4.78
2023-04-30T16:56:57.744Z,5.40
2023-04-30T16:59:25.263Z,4.40
2023-04-30T17:01:56.357Z,4.13
2023-04-30T17:04:24.386Z,5.75
2023-04-30T17:06:52.455Z,5.53
2023-04-30T17:09:20.101Z,5.20
2023-04-30T17:11:47.653Z,7.57
2023-04-30T17:14:15.262Z,5.80
2023-04-30T17:16:43.780Z,3.70
2023-04-30T17:19:11.274Z,4.53
2023-04-30T17:21:38.853Z,4.60
2023-04-30T17:24:06.861Z,3.85
2023-04-30T17:26:34.400Z,4.43
2023-04-30T17:29:01.959Z,5.05
2023-04-30T17:31:30.884Z,6.35
2023-04-30T17:33:59.965Z,10.35
2023-04-30T17:36:30.271Z,6.97
2023-04-30T17:38:57.821Z,21.25
2023-04-30T17:41:26.234Z,18.25
2023-04-30T17:43:53.752Z,17.52
2023-04-30T17:46:22.385Z,16.38
2023-04-30T17:48:49.940Z,13.38
2023-04-30T17:51:18.357Z,10.00
2023-04-30T17:53:45.829Z,5.20
2023-04-30T17:56:13.491Z,7.43
2023-04-30T17:58:41.016Z,10.77
2023-04-30T18:01:08.689Z,12.48
2023-04-30T18:03:36.356Z,14.80
2023-04-30T18:06:04.176Z,24.27
2023-04-30T18:08:32.435Z,34.45
2023-04-30T18:10:59.966Z,18.02
2023-04-30T18:13:27.484Z,22.60
2023-04-30T18:15:55.430Z,19.45
2023-04-30T18:18:23.256Z,11.60
2023-04-30T18:20:51.879Z,25.77
2023-04-30T18:23:20.810Z,29.08
2023-04-30T18:25:49.038Z,40.90
2023-04-30T18:28:16.555Z,19.67
2023-04-30T18:30:45.045Z,10.23
2023-04-30T18:33:12.633Z,7.68
2023-04-30T18:35:40.250Z,6.78
2023-04-30T18:38:08.194Z,5.45
2023-04-30T18:40:35.722Z,6.82
2023-04-30T18:43:03.696Z,7.43
2023-04-30T18:45:31.251Z,5.47
2023-04-30T18:47:58.805Z,6.35
2023-04-30T18:50:26.455Z,4.20
2023-04-30T18:52:54.058Z,5.68
2023-04-30T18:55:21.722Z,5.10
2023-04-30T18:57:50.558Z,8.43
2023-04-30T19:00:18.138Z,8.52
2023-04-30T19:02:45.703Z,6.95
2023-04-30T19:05:14.167Z,5.32
2023-04-30T19:07:41.775Z,6.88
2023-04-30T19:10:09.606Z,7.65
2023-04-30T19:12:37.190Z,6.80
2023-04-30T19:15:07.870Z,4.60
2023-04-30T19:17:35.443Z,5.72
2023-04-30T19:20:03.755Z,5.05
2023-04-30T19:22:31.355Z,6.28
2023-04-30T19:24:58.819Z,5.05
2023-04-30T19:27:26.420Z,5.55
2023-04-30T19:29:54.514Z,8.43
2023-04-30T19:32:22.864Z,5.30
2023-04-30T19:34:51.893Z,5.05
2023-04-30T19:37:19.413Z,6.05
2023-04-30T19:39:46.928Z,8.55
2023-04-30T19:42:15.224Z,5.82
2023-04-30T19:44:42.768Z,5.63
2023-04-30T19:47:10.369Z,4.50
2023-04-30T19:49:37.935Z,6.25
2023-04-30T19:52:07.687Z,8.55
2023-04-30T19:54:35.605Z,7.70
2023-04-30T19:57:03.578Z,7.63
2023-04-30T19:59:31.333Z,6.07
2023-04-30T20:01:59.713Z,8.90
2023-04-30T20:04:27.322Z,8.15
2023-04-30T20:06:57.308Z,11.07
2023-04-30T20:09:24.956Z,10.20
2023-04-30T20:11:52.534Z,8.18
2023-04-30T20:14:21.293Z,6.63
2023-04-30T20:16:53.536Z,6.35
2023-04-30T20:19:22.267Z,8.60
2023-04-30T20:21:50.946Z,7.10
2023-04-30T20:24:19.054Z,6.18
2023-04-30T20:26:46.688Z,14.68
2023-04-30T20:29:14.399Z,20.15
2023-04-30T20:31:42.087Z,21.35
2023-04-30T20:34:09.647Z,21.58
2023-04-30T20:36:37.239Z,22.08
2023-04-30T20:39:04.757Z,20.50
2023-04-30T20:41:32.291Z,12.38
2023-04-30T20:44:00.551Z,12.13
2023-04-30T20:46:28.631Z,12.13
2023-04-30T20:49:02.381Z,10.05
2023-04-30T20:51:30.130Z,12.30
2023-04-30T20:53:57.642Z,10.07
2023-04-30T20:56:25.840Z,9.82
2023-04-30T20:58:54.454Z,9.57
2023-04-30T21:01:22.486Z,8.93
2023-04-30T21:03:50.107Z,12.55
2023-04-30T21:06:17.859Z,11.60
2023-04-30T21:08:46.454Z,9.75
2023-04-30T21:11:16.624Z,9.32
2023-04-30T21:13:44.134Z,9.77
2023-04-30T21:16:11.804Z,11.80
2023-04-30T21:18:39.339Z,12.27
2023-04-30T21:21:09.214Z,11.07
2023-04-30T21:23:37.377Z,11.05
2023-04-30T21:26:04.931Z,7.22
2023-04-30T21:28:33.804Z,8.52
2023-04-30T21:31:08.530Z,8.80
2023-04-30T21:33:36.990Z,9.65
2023-04-30T21:36:08.039Z,11.57
2023-04-30T21:38:36.492Z,6.88
2023-04-30T21:41:04.448Z,8.65
2023-04-30T21:43:32.007Z,7.30
2023-04-30T21:46:03.164Z,10.70
2023-04-30T21:48:30.755Z,7.85
2023-04-30T21:50:58.253Z,10.68
2023-04-30T21:53:26.159Z,13.73
2023-04-30T21:55:53.687Z,10.82
2023-04-30T21:58:21.250Z,13.98
2023-04-30T22:00:49.524Z,14.52
2023-04-30T22:03:17.193Z,12.63
2023-04-30T22:05:46.218Z,11.68
2023-04-30T22:08:13.699Z,11.93
2023-04-30T22:10:41.316Z,14.02
2023-04-30T22:13:08.797Z,11.60
2023-04-30T22:15:47.119Z,12.93
2023-04-30T22:18:15.599Z,12.45
2023-04-30T22:20:43.151Z,14.18
2023-04-30T22:23:10.795Z,13.83
2023-04-30T22:25:38.432Z,12.35
2023-04-30T22:28:06.000Z,11.57
2023-04-30T22:30:33.492Z,12.40
2023-04-30T22:33:01.029Z,12.63
2023-04-30T22:35:29.421Z,10.65
2023-04-30T22:37:56.969Z,8.90
2023-04-30T22:40:24.770Z,10.33
2023-04-30T22:42:52.329Z,10.63
2023-04-30T22:45:19.899Z,11.18
2023-04-30T22:47:47.794Z,11.50
2023-04-30T22:50:15.444Z,11.65
2023-04-30T22:52:42.970Z,10.80
2023-04-30T22:55:10.985Z,12.73
2023-04-30T22:57:38.613Z,10.77
2023-04-30T23:00:07.113Z,10.82
2023-04-30T23:02:34.704Z,12.63
2023-04-30T23:05:03.905Z,14.50
2023-04-30T23:07:31.962Z,12.82
2023-04-30T23:09:59.455Z,16.10
2023-04-30T23:12:27.515Z,11.17
2023-04-30T23:14:55.212Z,13.23
2023-04-30T23:17:23.271Z,12.43
2023-04-30T23:19:50.790Z,12.05
2023-04-30T23:22:18.297Z,10.52
2023-04-30T23:24:45.837Z,11.00
2023-04-30T23:27:13.332Z,11.10
2023-04-30T23:29:40.866Z,11.97
2023-04-30T23:32:08.760Z,10.10
2023-04-30T23:34:36.283Z,9.27
2023-04-30T23:37:03.867Z,9.75
2023-04-30T23:39:31.353Z,9.90
2023-04-30T23:41:58.922Z,12.03
2023-04-30T23:44:26.419Z,9.15
2023-04-30T23:46:55.822Z,10.88
2023-04-30T23:49:24.914Z,10.53
2023-04-30T23:51:53.083Z,9.83
2023-04-30T23:54:20.862Z,11.02
2023-04-30T23:56:48.361Z,11.67
2023-04-30T23:59:16.041Z,10.87
